createdAt,value
2018-09-27T00:01:54.749Z,99.90
2018-09-27T00:04:23.161Z,99.90
2018-09-27T00:06:51.636Z,99.90
2018-09-27T00:09:23.579Z,99.90
2018-09-27T00:11:51.933Z,99.90
2018-09-27T00:14:20.462Z,99.90
2018-09-27T00:16:48.880Z,99.90
2018-09-27T00:19:17.274Z,99.90
2018-09-27T00:21:47.566Z,99.90
2018-09-27T00:24:16.060Z,99.90
2018-09-27T00:26:44.443Z,99.90
2018-09-27T00:29:13.660Z,99.90
2018-09-27T00:31:42.034Z,99.90
2018-09-27T00:34:10.593Z,99.90
2018-09-27T00:36:38.988Z,99.90
2018-09-27T00:39:09.721Z,99.90
2018-09-27T00:41:38.144Z,99.90
2018-09-27T00:44:06.869Z,99.90
2018-09-27T00:46:35.369Z,99.90
2018-09-27T00:49:03.788Z,99.90
2018-09-27T00:51:33.734Z,99.90
2018-09-27T00:54:03.160Z,99.90
2018-09-27T00:56:31.535Z,99.90
2018-09-27T00:58:59.933Z,99.90
2018-09-27T01:01:28.293Z,99.90
2018-09-27T01:03:57.593Z,99.90
2018-09-27T01:06:26.257Z,99.90
2018-09-27T01:08:54.729Z,99.90
2018-09-27T01:11:23.130Z,99.90
2018-09-27T01:13:51.608Z,99.90
2018-09-27T01:16:20.022Z,99.90
2018-09-27T01:18:48.463Z,99.90
2018-09-27T01:21:16.892Z,99.90
2018-09-27T01:23:45.345Z,99.90
2018-09-27T01:26:13.766Z,99.90
2018-09-27T01:28:42.637Z,99.90
2018-09-27T01:31:11.062Z,99.90
2018-09-27T01:33:39.658Z,99.90
2018-09-27T01:36:08.132Z,99.90
2018-09-27T01:38:36.551Z,99.90
2018-09-27T01:41:05.257Z,99.90
2018-09-27T01:43:34.840Z,99.90
2018-09-27T01:46:03.251Z,99.90
2018-09-27T01:48:31.648Z,99.90
2018-09-27T01:51:00.056Z,99.90
2018-09-27T01:53:28.565Z,99.90
2018-09-27T01:55:56.943Z,99.90
2018-09-27T01:58:25.368Z,99.90
2018-09-27T02:00:53.758Z,99.90
2018-09-27T02:03:22.141Z,99.90
2018-09-27T02:05:50.526Z,99.90
2018-09-27T02:08:18.957Z,99.90
2018-09-27T02:10:47.292Z,99.90
2018-09-27T02:13:15.728Z,99.90
2018-09-27T02:15:44.121Z,99.90
2018-09-27T02:18:12.568Z,99.90
2018-09-27T02:20:40.985Z,99.90
2018-09-27T02:23:09.496Z,99.90
2018-09-27T02:25:37.883Z,99.90
2018-09-27T02:28:06.307Z,99.90
2018-09-27T02:30:34.820Z,99.90
2018-09-27T02:33:03.429Z,99.90
2018-09-27T02:35:31.905Z,99.90
2018-09-27T02:38:00.373Z,99.90
2018-09-27T02:40:28.753Z,99.90
2018-09-27T02:42:57.279Z,99.90
2018-09-27T02:45:25.635Z,99.90
2018-09-27T02:47:53.972Z,99.90
2018-09-27T02:52:57.002Z,99.90
2018-09-27T02:55:25.406Z,99.90
2018-09-27T02:57:53.761Z,99.90
2018-09-27T03:00:23.164Z,99.90
2018-09-27T03:02:52.780Z,99.90
2018-09-27T03:05:21.192Z,99.90
2018-09-27T03:07:49.535Z,99.90
2018-09-27T03:10:17.855Z,99.90
2018-09-27T03:12:46.482Z,99.90
2018-09-27T03:15:14.924Z,99.90
2018-09-27T03:17:43.302Z,99.90
2018-09-27T03:20:11.695Z,99.90
2018-09-27T03:22:40.147Z,99.90
2018-09-27T03:25:08.975Z,99.90
2018-09-27T03:27:37.331Z,99.90
2018-09-27T03:30:05.777Z,99.90
2018-09-27T03:32:34.348Z,99.90
2018-09-27T03:35:02.771Z,99.90
2018-09-27T03:37:31.195Z,99.90
2018-09-27T03:39:59.739Z,99.90
2018-09-27T03:42:28.193Z,99.90
2018-09-27T03:44:56.535Z,99.90
2018-09-27T03:47:24.943Z,99.90
2018-09-27T03:49:53.365Z,99.90
2018-09-27T03:52:21.935Z,99.90
2018-09-27T03:54:50.285Z,99.90
2018-09-27T03:57:18.839Z,99.90
2018-09-27T03:59:47.284Z,99.90
2018-09-27T04:02:15.737Z,99.90
2018-09-27T04:04:44.130Z,99.90
2018-09-27T04:07:12.576Z,99.90
2018-09-27T04:09:41.012Z,99.90
2018-09-27T04:12:09.530Z,99.90
2018-09-27T04:14:37.884Z,99.90
2018-09-27T04:17:06.306Z,99.90
2018-09-27T04:19:34.664Z,99.90
2018-09-27T04:22:03.018Z,99.90
2018-09-27T04:24:32.373Z,99.90
2018-09-27T04:27:00.766Z,99.90
2018-09-27T04:29:29.192Z,99.90
2018-09-27T04:31:57.580Z,99.90
2018-09-27T04:34:26.099Z,99.90
2018-09-27T04:36:54.474Z,99.90
2018-09-27T04:39:22.917Z,99.90
2018-09-27T04:41:51.383Z,99.90
2018-09-27T04:44:20.107Z,99.90
2018-09-27T04:46:48.581Z,99.90
2018-09-27T04:49:17.020Z,99.90
2018-09-27T04:51:45.517Z,99.90
2018-09-27T04:54:13.916Z,99.90
2018-09-27T04:56:42.319Z,99.90
2018-09-27T04:59:10.699Z,99.90
2018-09-27T05:01:39.275Z,99.90
2018-09-27T05:04:08.019Z,99.90
2018-09-27T05:06:36.488Z,99.90
2018-09-27T05:09:06.324Z,99.90
2018-09-27T05:11:34.743Z,99.90
2018-09-27T05:14:03.286Z,99.90
2018-09-27T05:16:31.699Z,99.90
2018-09-27T05:19:06.754Z,99.90
2018-09-27T05:21:35.287Z,99.90
2018-09-27T05:24:03.611Z,99.90
2018-09-27T05:26:32.112Z,99.90
2018-09-27T05:29:00.477Z,99.90
2018-09-27T05:31:30.062Z,99.90
2018-09-27T05:33:58.596Z,99.90
2018-09-27T05:36:27.056Z,99.90
2018-09-27T05:38:55.453Z,99.90
2018-09-27T05:41:23.914Z,99.90
2018-09-27T05:43:52.295Z,99.90
2018-09-27T05:46:20.727Z,99.90
2018-09-27T05:48:49.211Z,99.90
2018-09-27T05:51:17.627Z,99.90
2018-09-27T05:53:46.055Z,99.90
2018-09-27T05:56:14.563Z,99.90
2018-09-27T05:58:43.019Z,99.90
2018-09-27T06:01:11.429Z,99.90
2018-09-27T06:03:40.094Z,99.90
2018-09-27T06:06:08.403Z,99.90
2018-09-27T06:08:36.834Z,99.90
2018-09-27T06:11:05.237Z,99.90
2018-09-27T06:13:33.667Z,99.90
2018-09-27T06:16:02.124Z,99.90
2018-09-27T06:18:30.505Z,99.90
2018-09-27T06:20:59.102Z,99.90
2018-09-27T06:23:27.680Z,99.90
2018-09-27T06:25:56.151Z,99.90
2018-09-27T06:28:24.537Z,99.90
2018-09-27T06:30:53.070Z,99.90
2018-09-27T06:33:21.561Z,99.90
2018-09-27T06:35:49.993Z,99.90
2018-09-27T06:38:18.356Z,99.90
2018-09-27T06:40:46.766Z,99.90
2018-09-27T06:43:15.992Z,99.90
2018-09-27T06:45:44.483Z,99.90
2018-09-27T06:48:12.921Z,99.90
2018-09-27T06:50:41.453Z,99.90
2018-09-27T06:53:10.014Z,99.90
2018-09-27T06:55:38.697Z,99.90
2018-09-27T06:58:06.964Z,99.90
2018-09-27T07:00:35.464Z,99.90
2018-09-27T07:03:03.917Z,99.90
2018-09-27T07:05:32.346Z,99.90
2018-09-27T07:08:00.819Z,99.90
2018-09-27T07:10:29.189Z,99.90
2018-09-27T07:12:57.658Z,99.90
2018-09-27T07:15:26.118Z,99.90
2018-09-27T07:17:54.481Z,99.90
2018-09-27T07:20:22.972Z,99.90
2018-09-27T07:22:51.536Z,99.90
2018-09-27T07:25:19.991Z,99.90
2018-09-27T07:27:48.361Z,99.90
2018-09-27T07:30:16.799Z,99.90
2018-09-27T07:32:46.845Z,99.90
2018-09-27T07:35:15.270Z,99.90
2018-09-27T07:37:43.806Z,99.90
2018-09-27T07:40:12.202Z,99.90
2018-09-27T07:42:40.656Z,99.90
2018-09-27T07:45:09.048Z,99.90
2018-09-27T07:47:37.464Z,99.90
2018-09-27T07:50:05.913Z,99.90
2018-09-27T07:52:34.370Z,99.90
2018-09-27T07:55:02.784Z,99.90
2018-09-27T07:57:31.250Z,99.90
2018-09-27T07:59:59.717Z,99.90
2018-09-27T08:02:28.273Z,99.90
2018-09-27T08:04:56.699Z,99.90
2018-09-27T08:07:25.173Z,99.90
2018-09-27T08:09:53.594Z,99.90
2018-09-27T08:15:20.694Z,99.90
2018-09-27T08:17:49.109Z,99.90
2018-09-27T08:20:17.840Z,99.90
2018-09-27T08:22:46.515Z,99.90
2018-09-27T08:25:15.802Z,99.90
2018-09-27T08:27:44.226Z,99.90
2018-09-27T08:30:12.701Z,99.90
2018-09-27T08:32:41.267Z,99.90
2018-09-27T08:35:09.680Z,99.90
2018-09-27T08:37:38.157Z,99.90
2018-09-27T08:40:06.702Z,99.90
2018-09-27T08:42:36.135Z,99.90
2018-09-27T08:45:04.774Z,99.90
2018-09-27T08:47:33.013Z,99.90
2018-09-27T08:50:01.451Z,99.90
2018-09-27T08:52:29.974Z,99.90
2018-09-27T08:54:58.359Z,99.90
2018-09-27T08:57:26.778Z,99.90
2018-09-27T08:59:55.253Z,99.90
2018-09-27T09:02:23.794Z,99.90
2018-09-27T09:04:52.217Z,99.90
2018-09-27T09:07:20.646Z,99.90
2018-09-27T09:09:49.127Z,99.90
2018-09-27T09:12:17.620Z,99.90
2018-09-27T09:14:45.978Z,99.90
2018-09-27T09:17:14.355Z,99.90
2018-09-27T09:19:42.757Z,99.90
2018-09-27T09:22:11.120Z,99.90
2018-09-27T09:24:39.522Z,99.90
2018-09-27T09:27:07.927Z,99.90
2018-09-27T09:29:36.500Z,99.90
2018-09-27T09:32:04.823Z,99.90
2018-09-27T09:34:33.227Z,99.90
2018-09-27T09:37:01.656Z,99.90
2018-09-27T09:39:30.677Z,99.90
2018-09-27T09:41:59.089Z,99.90
2018-09-27T09:44:27.482Z,99.90
2018-09-27T09:46:55.941Z,99.90
2018-09-27T09:49:24.378Z,99.90
2018-09-27T09:51:53.468Z,99.90
2018-09-27T09:54:21.902Z,99.90
2018-09-27T09:56:50.305Z,99.90
2018-09-27T09:59:18.701Z,99.90
2018-09-27T10:01:47.111Z,99.90
2018-09-27T10:04:15.593Z,99.90
2018-09-27T10:06:44.124Z,99.90
2018-09-27T10:09:12.520Z,99.90
2018-09-27T10:11:40.888Z,99.90
2018-09-27T10:14:09.397Z,99.90
2018-09-27T10:16:37.817Z,99.90
2018-09-27T10:19:06.255Z,99.90
2018-09-27T10:21:34.764Z,99.90
2018-09-27T10:24:03.185Z,99.90
2018-09-27T10:26:31.643Z,99.90
2018-09-27T10:29:00.077Z,99.90
2018-09-27T10:31:28.523Z,99.90
2018-09-27T10:33:57.131Z,99.90
2018-09-27T10:36:25.496Z,99.90
2018-09-27T10:38:53.855Z,99.90
2018-09-27T10:41:22.211Z,99.90
2018-09-27T10:43:50.871Z,99.90
2018-09-27T10:46:19.296Z,99.90
2018-09-27T10:48:47.721Z,99.90
2018-09-27T10:51:16.106Z,99.90
2018-09-27T10:53:44.588Z,99.90
2018-09-27T10:56:12.960Z,99.90
2018-09-27T10:58:41.442Z,99.90
2018-09-27T11:01:09.822Z,99.90
2018-09-27T11:03:38.473Z,99.90
2018-09-27T11:06:07.058Z,99.90
2018-09-27T11:08:35.633Z,99.90
2018-09-27T11:11:04.063Z,99.90
2018-09-27T11:13:32.569Z,99.90
2018-09-27T11:16:00.936Z,99.50
2018-09-27T11:18:29.300Z,99.10
2018-09-27T11:20:57.709Z,98.00
2018-09-27T11:23:26.093Z,95.50
2018-09-27T11:25:54.583Z,93.10
2018-09-27T11:28:23.086Z,92.60
2018-09-27T11:30:56.751Z,93.40
2018-09-27T11:33:25.292Z,90.10
2018-09-27T11:35:53.749Z,90.70
2018-09-27T11:38:22.158Z,90.70
2018-09-27T11:40:50.569Z,90.40
2018-09-27T11:43:19.061Z,86.90
2018-09-27T11:45:47.423Z,90.30
2018-09-27T11:48:15.832Z,88.00
2018-09-27T11:53:43.510Z,88.30
2018-09-27T11:56:11.986Z,90.10
2018-09-27T11:58:41.265Z,88.50
2018-09-27T12:01:09.813Z,88.00
2018-09-27T12:03:38.636Z,90.20
2018-09-27T12:06:07.007Z,88.20
2018-09-27T12:08:41.967Z,90.50
2018-09-27T12:11:10.451Z,89.60
2018-09-27T12:16:42.316Z,90.10
2018-09-27T12:19:10.929Z,88.00
2018-09-27T12:21:39.372Z,88.60
2018-09-27T12:24:07.887Z,88.40
2018-09-27T12:26:36.275Z,88.40
2018-09-27T12:29:05.847Z,89.00
2018-09-27T12:31:34.998Z,90.50
2018-09-27T12:34:03.448Z,90.10
2018-09-27T12:36:31.928Z,90.10
2018-09-27T12:39:00.300Z,89.50
2018-09-27T12:41:28.752Z,90.20
2018-09-27T12:43:59.292Z,89.70
2018-09-27T12:46:27.788Z,90.60
2018-09-27T12:48:56.297Z,90.00
2018-09-27T12:51:24.719Z,89.10
2018-09-27T12:53:53.367Z,89.30
2018-09-27T12:56:21.849Z,89.20
2018-09-27T12:58:50.250Z,88.20
2018-09-27T13:01:18.819Z,89.20
2018-09-27T13:03:47.437Z,90.00
2018-09-27T13:06:15.918Z,88.40
2018-09-27T13:08:44.374Z,89.80
2018-09-27T13:11:12.717Z,89.10
2018-09-27T13:13:41.314Z,88.00
2018-09-27T13:16:09.823Z,89.10
2018-09-27T13:18:38.158Z,88.00
2018-09-27T13:21:06.661Z,87.50
2018-09-27T13:23:35.205Z,88.00
2018-09-27T13:26:03.611Z,89.30
2018-09-27T13:28:32.126Z,86.80
2018-09-27T13:31:00.587Z,88.70
2018-09-27T13:33:28.940Z,88.30
2018-09-27T13:35:57.389Z,87.10
2018-09-27T13:38:25.788Z,87.70
2018-09-27T13:40:54.488Z,86.30
2018-09-27T13:43:22.836Z,85.90
2018-09-27T13:45:51.377Z,86.40
2018-09-27T13:48:19.820Z,85.40
2018-09-27T13:50:48.207Z,86.40
2018-09-27T13:53:16.765Z,86.10
2018-09-27T13:55:46.190Z,84.70
2018-09-27T13:58:14.954Z,84.50
2018-09-27T14:00:43.415Z,82.60
2018-09-27T14:03:11.934Z,82.90
2018-09-27T14:05:40.310Z,82.40
2018-09-27T14:08:08.692Z,83.30
2018-09-27T14:10:37.250Z,82.50
2018-09-27T14:13:05.753Z,83.80
2018-09-27T14:15:34.210Z,81.30
2018-09-27T14:18:02.623Z,82.00
2018-09-27T14:20:31.124Z,82.50
2018-09-27T14:22:59.641Z,83.50
2018-09-27T14:25:28.082Z,82.70
2018-09-27T14:27:56.529Z,82.70
2018-09-27T14:30:24.996Z,83.30
2018-09-27T14:32:53.445Z,82.90
2018-09-27T14:35:21.889Z,83.60
2018-09-27T14:37:50.290Z,83.90
2018-09-27T14:40:18.695Z,84.50
2018-09-27T14:42:47.323Z,83.90
2018-09-27T14:45:15.686Z,83.40
2018-09-27T14:47:44.148Z,84.00
2018-09-27T14:50:12.546Z,84.70
2018-09-27T14:52:41.003Z,84.50
2018-09-27T14:55:09.379Z,84.90
2018-09-27T14:57:37.825Z,84.30
2018-09-27T15:00:06.402Z,83.10
2018-09-27T15:02:34.934Z,84.10
2018-09-27T15:05:03.357Z,84.00
2018-09-27T15:07:31.926Z,84.00
2018-09-27T15:10:00.675Z,83.90
2018-09-27T15:12:29.108Z,84.70
2018-09-27T15:14:57.482Z,84.80
2018-09-27T15:17:25.957Z,83.70
2018-09-27T15:19:54.338Z,83.60
2018-09-27T15:22:22.805Z,81.50
2018-09-27T15:24:51.212Z,79.20
2018-09-27T15:27:19.619Z,79.30
2018-09-27T15:29:48.017Z,78.70
2018-09-27T15:32:16.602Z,76.70
2018-09-27T15:34:44.998Z,76.20
2018-09-27T15:37:13.406Z,75.00
2018-09-27T15:39:41.815Z,74.80
2018-09-27T15:42:10.359Z,74.60
2018-09-27T15:44:38.821Z,75.10
2018-09-27T15:47:07.218Z,73.70
2018-09-27T15:49:35.680Z,74.80
2018-09-27T15:52:04.231Z,76.90
2018-09-27T15:54:32.668Z,78.80
2018-09-27T15:57:01.057Z,80.30
2018-09-27T15:59:29.470Z,81.50
2018-09-27T16:01:58.213Z,82.20
2018-09-27T16:04:26.426Z,82.00
2018-09-27T16:06:54.817Z,83.40
2018-09-27T16:09:23.239Z,84.70
2018-09-27T16:11:51.595Z,84.60
2018-09-27T16:14:20.173Z,84.70
2018-09-27T16:16:48.608Z,82.70
2018-09-27T16:19:17.026Z,84.20
2018-09-27T16:21:45.556Z,85.50
2018-09-27T16:24:14.105Z,86.50
2018-09-27T16:26:42.541Z,87.50
2018-09-27T16:29:10.889Z,87.90
2018-09-27T16:31:39.394Z,88.70
2018-09-27T16:34:08.135Z,89.00
2018-09-27T16:36:36.547Z,89.30
2018-09-27T16:39:07.019Z,90.00
2018-09-27T16:41:35.402Z,89.90
2018-09-27T16:44:04.752Z,90.10
2018-09-27T16:46:33.134Z,90.20
2018-09-27T16:49:01.617Z,90.50
2018-09-27T16:51:30.026Z,90.80
2018-09-27T16:53:58.541Z,90.70
2018-09-27T16:56:26.862Z,90.90
2018-09-27T16:58:55.257Z,90.80
2018-09-27T17:01:23.864Z,90.80
2018-09-27T17:03:52.300Z,90.90
2018-09-27T17:06:20.716Z,91.40
2018-09-27T17:08:49.078Z,91.60
2018-09-27T17:11:17.614Z,91.60
2018-09-27T17:13:46.161Z,91.60
2018-09-27T17:16:14.520Z,91.80
2018-09-27T17:18:42.960Z,91.80
2018-09-27T17:21:11.455Z,92.00
2018-09-27T17:23:40.071Z,92.00
2018-09-27T17:26:08.394Z,92.00
2018-09-27T17:28:36.885Z,91.80
2018-09-27T17:31:05.258Z,91.70
2018-09-27T17:33:33.731Z,91.60
2018-09-27T17:36:02.244Z,91.60
2018-09-27T17:41:32.436Z,91.60
2018-09-27T17:44:00.934Z,92.00
2018-09-27T17:46:29.330Z,92.10
2018-09-27T17:48:57.894Z,92.00
2018-09-27T17:51:26.291Z,92.10
2018-09-27T17:53:54.732Z,92.00
2018-09-27T17:56:23.954Z,92.40
2018-09-27T17:58:53.220Z,92.70
2018-09-27T18:01:21.626Z,92.80
2018-09-27T18:03:51.210Z,93.00
2018-09-27T18:06:19.594Z,92.80
2018-09-27T18:08:47.941Z,93.10
2018-09-27T18:11:17.136Z,92.90
2018-09-27T18:13:48.678Z,92.90
2018-09-27T18:16:18.555Z,93.20
2018-09-27T18:18:46.954Z,93.10
2018-09-27T18:21:15.351Z,93.50
2018-09-27T18:23:43.995Z,93.60
2018-09-27T18:26:12.447Z,93.60
2018-09-27T18:28:40.895Z,94.00
2018-09-27T18:31:09.415Z,94.40
2018-09-27T18:33:37.860Z,94.50
2018-09-27T18:36:06.424Z,94.60
2018-09-27T18:38:35.041Z,94.60
2018-09-27T18:41:03.426Z,95.10
2018-09-27T18:43:31.807Z,94.30
2018-09-27T18:46:00.295Z,94.20
2018-09-27T18:48:29.534Z,94.20
2018-09-27T18:50:58.928Z,94.40
2018-09-27T18:53:29.219Z,94.70
2018-09-27T18:55:57.671Z,95.40
2018-09-27T18:58:26.325Z,95.50
2018-09-27T19:00:54.765Z,95.70
2018-09-27T19:03:23.144Z,95.90
2018-09-27T19:05:51.579Z,96.00
2018-09-27T19:08:19.956Z,96.10
2018-09-27T19:10:50.137Z,96.60
2018-09-27T19:13:19.997Z,97.00
2018-09-27T19:15:48.377Z,97.30
2018-09-27T19:18:19.225Z,97.70
2018-09-27T19:20:47.669Z,98.10
2018-09-27T19:23:16.120Z,98.60
2018-09-27T19:25:44.647Z,99.20
2018-09-27T19:28:13.070Z,99.70
2018-09-27T19:30:41.493Z,99.90
2018-09-27T19:33:09.955Z,99.90
2018-09-27T19:35:38.312Z,99.90
2018-09-27T19:38:06.725Z,99.90
2018-09-27T19:40:35.302Z,99.90
2018-09-27T19:43:03.781Z,99.90
2018-09-27T19:45:33.492Z,99.90
2018-09-27T19:48:01.896Z,99.90
2018-09-27T19:50:30.328Z,99.90
2018-09-27T19:52:58.816Z,99.90
2018-09-27T19:55:28.592Z,99.90
2018-09-27T19:57:57.012Z,99.90
2018-09-27T20:00:25.400Z,99.90
2018-09-27T20:02:54.076Z,99.90
2018-09-27T20:05:22.483Z,99.90
2018-09-27T20:07:50.891Z,99.90
2018-09-27T20:10:19.374Z,99.90
2018-09-27T20:12:48.737Z,99.90
2018-09-27T20:15:17.197Z,99.90
2018-09-27T20:17:45.692Z,99.90
2018-09-27T20:20:14.159Z,99.90
2018-09-27T20:22:42.707Z,99.90
2018-09-27T20:25:11.112Z,99.90
2018-09-27T20:27:40.687Z,99.90
2018-09-27T20:30:09.083Z,99.90
2018-09-27T20:32:39.710Z,99.90
2018-09-27T20:35:08.377Z,99.90
2018-09-27T20:37:36.777Z,99.90
2018-09-27T20:40:05.254Z,99.90
2018-09-27T20:42:35.655Z,99.90
2018-09-27T20:45:05.053Z,99.90
2018-09-27T20:47:34.341Z,99.90
2018-09-27T20:50:02.905Z,99.90
2018-09-27T20:52:31.519Z,99.90
2018-09-27T20:55:01.300Z,99.90
2018-09-27T20:57:29.671Z,99.90
2018-09-27T20:59:58.818Z,99.90
2018-09-27T21:02:27.900Z,99.90
2018-09-27T21:04:56.371Z,99.90
2018-09-27T21:07:24.736Z,99.90
2018-09-27T21:09:53.194Z,99.90
2018-09-27T21:12:23.030Z,99.90
2018-09-27T21:14:52.138Z,99.90
2018-09-27T21:17:20.599Z,99.90
2018-09-27T21:19:50.640Z,99.90
2018-09-27T21:22:20.703Z,99.90
2018-09-27T21:24:49.050Z,99.90
2018-09-27T21:27:17.660Z,99.90
2018-09-27T21:29:46.095Z,99.90
2018-09-27T21:32:14.618Z,99.90
2018-09-27T21:34:42.962Z,99.90
2018-09-27T21:37:11.294Z,99.90
2018-09-27T21:39:57.548Z,99.90
2018-09-27T21:42:29.600Z,99.90
2018-09-27T21:44:58.028Z,99.90
2018-09-27T21:47:26.440Z,99.90
2018-09-27T21:49:55.205Z,99.90
2018-09-27T21:52:23.555Z,99.90
2018-09-27T21:54:57.349Z,99.90
2018-09-27T21:57:25.763Z,99.90
2018-09-27T22:00:00.231Z,99.90
2018-09-27T22:02:35.717Z,99.90
2018-09-27T22:05:04.136Z,99.90
2018-09-27T22:07:32.481Z,99.90
2018-09-27T22:10:03.748Z,99.90
2018-09-27T22:12:33.455Z,99.90
2018-09-27T22:15:01.842Z,99.90
2018-09-27T22:17:30.280Z,99.90
2018-09-27T22:19:58.679Z,99.90
2018-09-27T22:22:27.236Z,99.90
2018-09-27T22:24:55.552Z,99.90
2018-09-27T22:27:23.874Z,99.90
2018-09-27T22:29:52.302Z,99.90
2018-09-27T22:32:20.743Z,99.90
2018-09-27T22:34:49.171Z,99.90
2018-09-27T22:37:18.362Z,99.90
2018-09-27T22:39:46.684Z,99.90
2018-09-27T22:42:15.071Z,99.90
2018-09-27T22:44:43.425Z,99.90
2018-09-27T22:47:12.885Z,99.90
2018-09-27T22:49:41.255Z,99.90
2018-09-27T22:52:10.459Z,99.90
2018-09-27T22:54:38.837Z,99.90
2018-09-27T22:57:08.156Z,99.90
2018-09-27T22:59:36.528Z,99.90
2018-09-27T23:02:04.964Z,99.90
2018-09-27T23:04:33.646Z,99.90
2018-09-27T23:07:04.009Z,99.90
2018-09-27T23:09:32.364Z,99.90
2018-09-27T23:12:01.949Z,99.90
2018-09-27T23:14:30.333Z,99.90
2018-09-27T23:16:59.664Z,99.90
2018-09-27T23:19:27.985Z,99.90
2018-09-27T23:21:56.645Z,99.90
2018-09-27T23:24:25.020Z,99.90
2018-09-27T23:26:53.393Z,99.90
2018-09-27T23:29:23.981Z,99.90
2018-09-27T23:31:53.427Z,99.90
2018-09-27T23:34:22.527Z,99.90
2018-09-27T23:36:50.867Z,99.90
2018-09-27T23:39:19.879Z,99.90
2018-09-27T23:41:48.822Z,99.90
2018-09-27T23:44:17.301Z,99.90
2018-09-27T23:46:45.710Z,99.90
2018-09-27T23:49:14.110Z,99.90
2018-09-27T23:51:42.615Z,99.90
2018-09-27T23:54:11.324Z,99.90
2018-09-27T23:56:39.750Z,99.90
2018-09-27T23:59:08.517Z,99.90
